sensor_id;sensor_type;location;lat;lon;timestamp;pressure;altitude;pressure_sealevel;temperature;humidity
52953;BME280;38815;55.932;-3.232;2022-10-01T00:01:40;98378.56;;;18.13;61.44
52953;BME280;38815;55.932;-3.232;2022-10-01T00:04:05;98379.88;;;18.12;61.51
52953;BME280;38815;55.932;-3.232;2022-10-01T00:06:31;98388.94;;;18.10;61.33
52953;BME280;38815;55.932;-3.232;2022-10-01T00:08:56;98410.16;;;18.11;61.21
52953;BME280;38815;55.932;-3.232;2022-10-01T00:11:22;98418.78;;;18.13;60.81
52953;BME280;38815;55.932;-3.232;2022-10-01T00:13:48;98427.53;;;18.08;60.90
52953;BME280;38815;55.932;-3.232;2022-10-01T00:16:15;98426.16;;;18.09;60.96
52953;BME280;38815;55.932;-3.232;2022-10-01T00:18:41;98441.63;;;18.08;60.83
52953;BME280;38815;55.932;-3.232;2022-10-01T00:21:07;98441.63;;;18.08;60.59
52953;BME280;38815;55.932;-3.232;2022-10-01T00:23:33;98439.97;;;18.05;61.28
52953;BME280;38815;55.932;-3.232;2022-10-01T00:26:08;98434.19;;;18.03;60.83
52953;BME280;38815;55.932;-3.232;2022-10-01T00:28:35;98441.28;;;18.04;61.08
52953;BME280;38815;55.932;-3.232;2022-10-01T00:31:00;98443.53;;;18.05;61.00
52953;BME280;38815;55.932;-3.232;2022-10-01T00:33:26;98453.16;;;18.02;60.99
52953;BME280;38815;55.932;-3.232;2022-10-01T00:35:54;98451.09;;;18.03;61.28
52953;BME280;38815;55.932;-3.232;2022-10-01T00:38:21;98452.28;;;18.00;61.27
52953;BME280;38815;55.932;-3.232;2022-10-01T00:40:46;98453.00;;;18.00;61.39
52953;BME280;38815;55.932;-3.232;2022-10-01T00:43:22;98459.38;;;18.01;61.28
52953;BME280;38815;55.932;-3.232;2022-10-01T00:45:47;98453.00;;;18.00;61.23
52953;BME280;38815;55.932;-3.232;2022-10-01T00:48:13;98448.69;;;17.99;61.54
52953;BME280;38815;55.932;-3.232;2022-10-01T00:50:39;98454.34;;;17.99;60.88
52953;BME280;38815;55.932;-3.232;2022-10-01T00:53:05;98458.47;;;17.98;61.35
52953;BME280;38815;55.932;-3.232;2022-10-01T00:55:35;98453.41;;;17.97;61.22
52953;BME280;38815;55.932;-3.232;2022-10-01T00:58:04;98442.13;;;17.97;61.14
52953;BME280;38815;55.932;-3.232;2022-10-01T01:00:31;98445.72;;;17.97;61.62
52953;BME280;38815;55.932;-3.232;2022-10-01T01:02:56;98451.94;;;17.96;61.37
52953;BME280;38815;55.932;-3.232;2022-10-01T01:05:22;98461.00;;;17.94;61.38
52953;BME280;38815;55.932;-3.232;2022-10-01T01:07:48;98461.72;;;17.95;61.21
52953;BME280;38815;55.932;-3.232;2022-10-01T01:10:18;98465.72;;;17.92;61.54
52953;BME280;38815;55.932;-3.232;2022-10-01T01:13:08;98466.63;;;17.94;61.22
52953;BME280;38815;55.932;-3.232;2022-10-01T01:15:40;98477.16;;;17.94;61.56
52953;BME280;38815;55.932;-3.232;2022-10-01T01:18:12;98474.91;;;17.92;61.45
52953;BME280;38815;55.932;-3.232;2022-10-01T01:30:47;98475.50;;;17.91;61.93
52953;BME280;38815;55.932;-3.232;2022-10-01T01:33:14;98472.69;;;17.91;61.56
52953;BME280;38815;55.932;-3.232;2022-10-01T01:36:16;98478.31;;;17.91;61.79
52953;BME280;38815;55.932;-3.232;2022-10-01T01:38:34;98501.59;;;17.91;61.72
52953;BME280;38815;55.932;-3.232;2022-10-01T01:41:04;98505.34;;;17.94;61.44
52953;BME280;38815;55.932;-3.232;2022-10-01T01:43:33;98506.09;;;17.94;61.24
52953;BME280;38815;55.932;-3.232;2022-10-01T01:46:01;98501.19;;;17.95;61.14
52953;BME280;38815;55.932;-3.232;2022-10-01T01:48:28;98487.69;;;17.93;61.21
52953;BME280;38815;55.932;-3.232;2022-10-01T01:51:03;98486.03;;;17.90;61.53
52953;BME280;38815;55.932;-3.232;2022-10-01T01:53:30;98485.88;;;17.88;61.83
52953;BME280;38815;55.932;-3.232;2022-10-01T01:55:56;98485.13;;;17.88;61.67
52953;BME280;38815;55.932;-3.232;2022-10-01T01:58:21;98497.91;;;17.89;61.53
52953;BME280;38815;55.932;-3.232;2022-10-01T02:00:48;98490.63;;;17.86;61.79
52953;BME280;38815;55.932;-3.232;2022-10-01T02:03:17;98473.47;;;17.74;61.64
52953;BME280;38815;55.932;-3.232;2022-10-01T02:05:49;98501.13;;;17.85;62.03
52953;BME280;38815;55.932;-3.232;2022-10-01T02:10:58;98490.44;;;17.84;61.86
52953;BME280;38815;55.932;-3.232;2022-10-01T02:26:33;98492.94;;;17.80;61.80
52953;BME280;38815;55.932;-3.232;2022-10-01T02:29:02;98497.09;;;17.79;61.76
52953;BME280;38815;55.932;-3.232;2022-10-01T02:31:28;98492.03;;;17.77;61.65
52953;BME280;38815;55.932;-3.232;2022-10-01T02:33:54;98498.56;;;17.80;61.77
52953;BME280;38815;55.932;-3.232;2022-10-01T02:36:20;98487.13;;;17.78;61.68
52953;BME280;38815;55.932;-3.232;2022-10-01T02:38:48;98492.63;;;17.76;61.75
52953;BME280;38815;55.932;-3.232;2022-10-01T02:41:18;98500.50;;;17.77;61.69
52953;BME280;38815;55.932;-3.232;2022-10-01T02:43:58;98512.19;;;17.74;61.58
52953;BME280;38815;55.932;-3.232;2022-10-01T02:46:35;98517.81;;;17.74;61.58
52953;BME280;38815;55.932;-3.232;2022-10-01T02:49:03;98506.38;;;17.72;61.17
52953;BME280;38815;55.932;-3.232;2022-10-01T02:54:56;98519.13;;;17.73;61.62
52953;BME280;38815;55.932;-3.232;2022-10-01T02:57:01;98524.03;;;17.72;61.48
52953;BME280;38815;55.932;-3.232;2022-10-01T02:59:45;98522.38;;;17.69;61.55
52953;BME280;38815;55.932;-3.232;2022-10-01T03:02:11;98520.31;;;17.70;61.68
52953;BME280;38815;55.932;-3.232;2022-10-01T03:04:37;98524.47;;;17.69;61.72
52953;BME280;38815;55.932;-3.232;2022-10-01T03:07:02;98525.06;;;17.67;61.34
52953;BME280;38815;55.932;-3.232;2022-10-01T03:09:31;98524.47;;;17.69;61.76
52953;BME280;38815;55.932;-3.232;2022-10-01T03:11:57;98516.59;;;17.67;61.45
52953;BME280;38815;55.932;-3.232;2022-10-01T03:14:23;98509.44;;;17.66;61.38
52953;BME280;38815;55.932;-3.232;2022-10-01T03:16:49;98514.50;;;17.68;61.59
52953;BME280;38815;55.932;-3.232;2022-10-01T03:19:14;98519.25;;;17.65;61.60
52953;BME280;38815;55.932;-3.232;2022-10-01T03:21:39;98515.84;;;17.67;61.29
52953;BME280;38815;55.932;-3.232;2022-10-01T03:24:05;98517.75;;;17.64;60.99
52953;BME280;38815;55.932;-3.232;2022-10-01T03:26:30;98526.78;;;17.63;61.20
52953;BME280;38815;55.932;-3.232;2022-10-01T03:28:55;98531.66;;;17.62;61.20
52953;BME280;38815;55.932;-3.232;2022-10-01T03:31:21;98538.06;;;17.63;61.41
52953;BME280;38815;55.932;-3.232;2022-10-01T03:33:46;98527.53;;;17.63;61.64
52953;BME280;38815;55.932;-3.232;2022-10-01T03:36:11;98533.75;;;17.62;61.62
52953;BME280;38815;55.932;-3.232;2022-10-01T03:38:37;98545.75;;;17.62;61.79
52953;BME280;38815;55.932;-3.232;2022-10-01T03:41:02;98558.53;;;17.63;61.48
52953;BME280;38815;55.932;-3.232;2022-10-01T03:43:27;98558.34;;;17.61;61.39
52953;BME280;38815;55.932;-3.232;2022-10-01T03:45:53;98569.63;;;17.61;61.12
52953;BME280;38815;55.932;-3.232;2022-10-01T03:48:18;98580.16;;;17.60;61.44
52953;BME280;38815;55.932;-3.232;2022-10-01T03:50:55;98581.47;;;17.59;61.38
52953;BME280;38815;55.932;-3.232;2022-10-01T03:53:21;98589.19;;;17.59;61.44
52953;BME280;38815;55.932;-3.232;2022-10-01T03:55:46;98576.59;;;17.60;61.57
52953;BME280;38815;55.932;-3.232;2022-10-01T03:58:12;98581.47;;;17.59;61.60
52953;BME280;38815;55.932;-3.232;2022-10-01T04:00:37;98589.94;;;17.59;61.60
52953;BME280;38815;55.932;-3.232;2022-10-01T04:03:02;98594.81;;;17.59;61.70
52953;BME280;38815;55.932;-3.232;2022-10-01T04:05:27;98591.81;;;17.57;61.90
52953;BME280;38815;55.932;-3.232;2022-10-01T04:07:53;98589.00;;;17.57;61.54
52953;BME280;38815;55.932;-3.232;2022-10-01T04:10:18;98594.50;;;17.55;61.57
52953;BME280;38815;55.932;-3.232;2022-10-01T04:12:43;98591.69;;;17.55;61.72
52953;BME280;38815;55.932;-3.232;2022-10-01T04:15:09;98598.81;;;17.56;61.91
52953;BME280;38815;55.932;-3.232;2022-10-01T04:17:35;98587.34;;;17.54;61.56
52953;BME280;38815;55.932;-3.232;2022-10-01T04:20:00;98605.19;;;17.56;61.55
52953;BME280;38815;55.932;-3.232;2022-10-01T04:22:25;98603.50;;;17.53;61.66
52953;BME280;38815;55.932;-3.232;2022-10-01T04:24:51;98607.84;;;17.54;61.89
52953;BME280;38815;55.932;-3.232;2022-10-01T04:27:17;98604.25;;;17.54;61.60
52953;BME280;38815;55.932;-3.232;2022-10-01T04:29:43;98609.13;;;17.53;61.55
52953;BME280;38815;55.932;-3.232;2022-10-01T04:32:08;98616.88;;;17.53;61.38
52953;BME280;38815;55.932;-3.232;2022-10-01T04:34:33;98607.66;;;17.52;61.68
52953;BME280;38815;55.932;-3.232;2022-10-01T04:37:17;98609.13;;;17.53;61.44
52953;BME280;38815;55.932;-3.232;2022-10-01T04:39:42;98620.09;;;17.49;61.56
52953;BME280;38815;55.932;-3.232;2022-10-01T04:42:07;98620.28;;;17.51;61.79
52953;BME280;38815;55.932;-3.232;2022-10-01T04:44:33;98616.88;;;17.53;61.66
52953;BME280;38815;55.932;-3.232;2022-10-01T04:46:58;98629.31;;;17.50;61.69
52953;BME280;38815;55.932;-3.232;2022-10-01T04:49:24;98622.34;;;17.51;61.40
52953;BME280;38815;55.932;-3.232;2022-10-01T04:51:49;98627.22;;;17.50;61.44
52953;BME280;38815;55.932;-3.232;2022-10-01T04:54:14;98627.78;;;17.49;61.68
52953;BME280;38815;55.932;-3.232;2022-10-01T04:56:39;98631.19;;;17.47;61.55
52953;BME280;38815;55.932;-3.232;2022-10-01T04:59:04;98628.38;;;17.47;61.49
52953;BME280;38815;55.932;-3.232;2022-10-01T05:01:30;98627.63;;;17.47;61.65
52953;BME280;38815;55.932;-3.232;2022-10-01T05:03:56;98635.34;;;17.46;61.55
52953;BME280;38815;55.932;-3.232;2022-10-01T05:06:21;98632.69;;;17.48;61.41
52953;BME280;38815;55.932;-3.232;2022-10-01T05:08:47;98630.44;;;17.47;61.42
52953;BME280;38815;55.932;-3.232;2022-10-01T05:11:13;98634.00;;;17.47;61.54
52953;BME280;38815;55.932;-3.232;2022-10-01T05:13:39;98640.22;;;17.46;61.76
52953;BME280;38815;55.932;-3.232;2022-10-01T05:16:04;98639.44;;;17.45;61.36
52953;BME280;38815;55.932;-3.232;2022-10-01T05:18:29;98643.03;;;17.46;61.24
52953;BME280;38815;55.932;-3.232;2022-10-01T05:20:55;98636.63;;;17.45;61.42
52953;BME280;38815;55.932;-3.232;2022-10-01T05:23:20;98636.44;;;17.43;61.46
52953;BME280;38815;55.932;-3.232;2022-10-01T05:25:45;98654.09;;;17.44;61.36
52953;BME280;38815;55.932;-3.232;2022-10-01T05:28:11;98651.13;;;17.42;61.35
52953;BME280;38815;55.932;-3.232;2022-10-01T05:30:37;98667.25;;;17.41;61.29
52953;BME280;38815;55.932;-3.232;2022-10-01T05:33:02;98649.81;;;17.43;61.18
52953;BME280;38815;55.932;-3.232;2022-10-01T05:35:28;98652.03;;;17.44;61.12
52953;BME280;38815;55.932;-3.232;2022-10-01T05:37:54;98654.69;;;17.42;61.28
52953;BME280;38815;55.932;-3.232;2022-10-01T05:40:20;98655.84;;;17.39;61.21
52953;BME280;38815;55.932;-3.232;2022-10-01T05:42:45;98655.09;;;17.39;61.54
52953;BME280;38815;55.932;-3.232;2022-10-01T05:45:11;98662.06;;;17.38;61.43
52953;BME280;38815;55.932;-3.232;2022-10-01T05:47:36;98667.69;;;17.38;61.29
52953;BME280;38815;55.932;-3.232;2022-10-01T05:50:02;98663.38;;;17.37;61.39
52953;BME280;38815;55.932;-3.232;2022-10-01T05:52:28;98666.75;;;17.35;61.63
52953;BME280;38815;55.932;-3.232;2022-10-01T05:54:53;98670.50;;;17.38;61.59
52953;BME280;38815;55.932;-3.232;2022-10-01T05:57:18;98668.25;;;17.36;61.11
52953;BME280;38815;55.932;-3.232;2022-10-01T05:59:43;98671.81;;;17.37;61.44
52953;BME280;38815;55.932;-3.232;2022-10-01T06:02:09;98678.03;;;17.35;61.52
52953;BME280;38815;55.932;-3.232;2022-10-01T06:04:34;98665.59;;;17.38;61.37
52953;BME280;38815;55.932;-3.232;2022-10-01T06:06:59;98678.38;;;17.39;61.47
52953;BME280;38815;55.932;-3.232;2022-10-01T06:09:25;98677.44;;;17.37;61.63
52953;BME280;38815;55.932;-3.232;2022-10-01T06:11:50;98683.84;;;17.37;61.48
52953;BME280;38815;55.932;-3.232;2022-10-01T06:14:15;98677.84;;;17.33;61.64
52953;BME280;38815;55.932;-3.232;2022-10-01T06:16:41;98682.00;;;17.32;61.59
52953;BME280;38815;55.932;-3.232;2022-10-01T06:19:06;98682.72;;;17.33;61.52
52953;BME280;38815;55.932;-3.232;2022-10-01T06:21:31;98684.81;;;17.32;61.53
52953;BME280;38815;55.932;-3.232;2022-10-01T06:23:57;98687.06;;;17.34;61.50
52953;BME280;38815;55.932;-3.232;2022-10-01T06:26:22;98692.50;;;17.32;60.98
52953;BME280;38815;55.932;-3.232;2022-10-01T06:28:48;98695.16;;;17.30;61.68
52953;BME280;38815;55.932;-3.232;2022-10-01T06:31:14;98700.97;;;17.32;61.30
52953;BME280;38815;55.932;-3.232;2022-10-01T06:33:39;98698.91;;;17.32;61.28
52953;BME280;38815;55.932;-3.232;2022-10-01T06:36:05;98705.25;;;17.33;61.27
52953;BME280;38815;55.932;-3.232;2022-10-01T06:38:30;98717.88;;;17.32;61.27
52953;BME280;38815;55.932;-3.232;2022-10-01T06:40:56;98719.53;;;17.35;61.10
52953;BME280;38815;55.932;-3.232;2022-10-01T06:43:25;98723.69;;;17.34;61.19
52953;BME280;38815;55.932;-3.232;2022-10-01T06:45:51;98727.97;;;17.35;61.14
52953;BME280;38815;55.932;-3.232;2022-10-01T06:48:17;98721.44;;;17.32;61.35
52953;BME280;38815;55.932;-3.232;2022-10-01T06:50:44;98729.13;;;17.32;61.26
52953;BME280;38815;55.932;-3.232;2022-10-01T06:53:10;98729.13;;;17.32;61.38
52953;BME280;38815;55.932;-3.232;2022-10-01T06:55:36;98722.75;;;17.31;61.47
52953;BME280;38815;55.932;-3.232;2022-10-01T06:58:03;98735.13;;;17.36;61.23
52953;BME280;38815;55.932;-3.232;2022-10-01T07:00:29;98728.56;;;17.33;60.95
52953;BME280;38815;55.932;-3.232;2022-10-01T07:02:55;98739.06;;;17.33;61.06
52953;BME280;38815;55.932;-3.232;2022-10-01T07:05:21;98743.22;;;17.32;61.03
52953;BME280;38815;55.932;-3.232;2022-10-01T07:07:46;98742.47;;;17.31;61.16
52953;BME280;38815;55.932;-3.232;2022-10-01T07:10:13;98736.25;;;17.33;61.47
52953;BME280;38815;55.932;-3.232;2022-10-01T07:12:38;98734.75;;;17.32;62.03
52953;BME280;38815;55.932;-3.232;2022-10-01T07:15:04;98737.19;;;17.35;62.60
52953;BME280;38815;55.932;-3.232;2022-10-01T07:17:30;98740.75;;;17.36;61.96
52953;BME280;38815;55.932;-3.232;2022-10-01T07:19:56;98750.69;;;17.37;62.14
52953;BME280;38815;55.932;-3.232;2022-10-01T07:22:21;98758.75;;;17.40;61.74
52953;BME280;38815;55.932;-3.232;2022-10-01T07:24:48;98755.00;;;17.38;62.25
52953;BME280;38815;55.932;-3.232;2022-10-01T07:27:13;98776.03;;;17.37;62.40
52953;BME280;38815;55.932;-3.232;2022-10-01T07:29:39;98766.28;;;17.38;62.39
52953;BME280;38815;55.932;-3.232;2022-10-01T07:32:05;98765.31;;;17.43;62.60
52953;BME280;38815;55.932;-3.232;2022-10-01T07:34:33;98764.19;;;17.46;62.57
52953;BME280;38815;55.932;-3.232;2022-10-01T07:36:59;98770.56;;;17.46;62.19
52953;BME280;38815;55.932;-3.232;2022-10-01T07:39:24;98771.66;;;17.43;62.52
52953;BME280;38815;55.932;-3.232;2022-10-01T07:41:50;98777.47;;;17.45;62.26
52953;BME280;38815;55.932;-3.232;2022-10-01T07:44:16;98774.88;;;17.47;62.06
52953;BME280;38815;55.932;-3.232;2022-10-01T07:46:41;98790.28;;;17.46;62.19
52953;BME280;38815;55.932;-3.232;2022-10-01T07:49:07;98789.53;;;17.46;62.68
52953;BME280;38815;55.932;-3.232;2022-10-01T07:51:32;98786.91;;;17.48;62.58
52953;BME280;38815;55.932;-3.232;2022-10-01T07:53:57;98784.81;;;17.48;62.38
52953;BME280;38815;55.932;-3.232;2022-10-01T07:56:23;98791.03;;;17.47;62.18
52953;BME280;38815;55.932;-3.232;2022-10-01T07:58:52;98793.09;;;17.46;62.45
52953;BME280;38815;55.932;-3.232;2022-10-01T08:01:18;98800.03;;;17.45;62.16
52953;BME280;38815;55.932;-3.232;2022-10-01T08:03:46;98800.03;;;17.45;61.96
52953;BME280;38815;55.932;-3.232;2022-10-01T08:06:11;98816.38;;;17.47;62.21
52953;BME280;38815;55.932;-3.232;2022-10-01T08:08:37;98812.06;;;17.46;62.46
52953;BME280;38815;55.932;-3.232;2022-10-01T08:11:02;98812.63;;;17.44;62.55
52953;BME280;38815;55.932;-3.232;2022-10-01T08:13:27;98816.16;;;17.45;62.33
52953;BME280;38815;55.932;-3.232;2022-10-01T08:15:53;98818.81;;;17.43;62.38
52953;BME280;38815;55.932;-3.232;2022-10-01T08:18:22;98822.94;;;17.42;62.61
52953;BME280;38815;55.932;-3.232;2022-10-01T08:20:47;98828.00;;;17.43;62.53
52953;BME280;38815;55.932;-3.232;2022-10-01T08:23:13;98830.09;;;17.43;62.61
52953;BME280;38815;55.932;-3.232;2022-10-01T08:25:39;98837.22;;;17.44;62.57
52953;BME280;38815;55.932;-3.232;2022-10-01T08:28:05;98839.09;;;17.41;62.65
52953;BME280;38815;55.932;-3.232;2022-10-01T08:30:31;98848.88;;;17.40;62.78
52953;BME280;38815;55.932;-3.232;2022-10-01T08:32:57;98838.94;;;17.39;62.63
52953;BME280;38815;55.932;-3.232;2022-10-01T08:35:23;98848.13;;;17.40;62.54
52953;BME280;38815;55.932;-3.232;2022-10-01T08:37:48;98861.47;;;17.39;62.66
52953;BME280;38815;55.932;-3.232;2022-10-01T08:40:14;98867.69;;;17.38;62.58
52953;BME280;38815;55.932;-3.232;2022-10-01T08:42:42;98872.00;;;17.39;62.87
52953;BME280;38815;55.932;-3.232;2022-10-01T08:45:12;98880.22;;;17.44;63.96
52953;BME280;38815;55.932;-3.232;2022-10-01T08:47:38;98878.91;;;17.45;63.39
52953;BME280;38815;55.932;-3.232;2022-10-01T08:52:40;98877.41;;;17.44;63.14
52953;BME280;38815;55.932;-3.232;2022-10-01T08:55:12;98880.97;;;17.45;63.57
52953;BME280;38815;55.932;-3.232;2022-10-01T08:57:46;98884.53;;;17.45;63.09
52953;BME280;38815;55.932;-3.232;2022-10-01T09:00:14;98886.06;;;17.46;63.62
52953;BME280;38815;55.932;-3.232;2022-10-01T09:02:41;98907.28;;;17.47;63.40
52953;BME280;38815;55.932;-3.232;2022-10-01T09:05:15;98908.63;;;17.46;64.28
52953;BME280;38815;55.932;-3.232;2022-10-01T09:13:23;98911.78;;;17.50;66.34
52953;BME280;38815;55.932;-3.232;2022-10-01T09:15:31;98909.13;;;17.52;66.14
52953;BME280;38815;55.932;-3.232;2022-10-01T09:18:03;98917.00;;;17.54;65.60
52953;BME280;38815;55.932;-3.232;2022-10-01T09:20:35;98919.81;;;17.54;65.70
52953;BME280;38815;55.932;-3.232;2022-10-01T09:25:28;98931.06;;;17.62;66.21
52953;BME280;38815;55.932;-3.232;2022-10-01T09:27:56;98925.63;;;17.64;64.62
52953;BME280;38815;55.932;-3.232;2022-10-01T09:30:24;98929.91;;;17.65;64.43
52953;BME280;38815;55.932;-3.232;2022-10-01T09:35:41;98936.25;;;17.73;65.19
52953;BME280;38815;55.932;-3.232;2022-10-01T09:43:04;98942.03;;;17.82;65.63
52953;BME280;38815;55.932;-3.232;2022-10-01T09:45:33;98948.78;;;17.87;65.89
52953;BME280;38815;55.932;-3.232;2022-10-01T09:48:23;98948.19;;;17.88;66.03
52953;BME280;38815;55.932;-3.232;2022-10-01T09:50:48;98948.94;;;17.89;64.56
52953;BME280;38815;55.932;-3.232;2022-10-01T09:56:09;98957.41;;;17.89;64.58
52953;BME280;38815;55.932;-3.232;2022-10-01T09:58:36;98955.91;;;17.88;64.57
52953;BME280;38815;55.932;-3.232;2022-10-01T10:01:03;98955.91;;;17.88;64.21
52953;BME280;38815;55.932;-3.232;2022-10-01T10:03:35;98968.69;;;17.89;64.65
52953;BME280;38815;55.932;-3.232;2022-10-01T10:06:00;98968.88;;;17.91;64.95
52953;BME280;38815;55.932;-3.232;2022-10-01T10:11:09;98964.53;;;17.90;64.50
52953;BME280;38815;55.932;-3.232;2022-10-01T10:13:36;98974.50;;;17.91;64.29
52953;BME280;38815;55.932;-3.232;2022-10-01T10:18:50;98981.06;;;17.93;64.08
52953;BME280;38815;55.932;-3.232;2022-10-01T10:21:19;98984.44;;;17.92;64.36
52953;BME280;38815;55.932;-3.232;2022-10-01T10:23:50;98995.72;;;17.92;64.23
52953;BME280;38815;55.932;-3.232;2022-10-01T10:26:20;99007.00;;;17.92;63.79
52953;BME280;38815;55.932;-3.232;2022-10-01T10:28:45;99008.34;;;17.91;64.42
52953;BME280;38815;55.932;-3.232;2022-10-01T10:31:16;99010.03;;;17.86;63.31
52953;BME280;38815;55.932;-3.232;2022-10-01T10:33:53;98973.75;;;17.50;63.65
52953;BME280;38815;55.932;-3.232;2022-10-01T10:36:21;99010.09;;;17.79;63.50
52953;BME280;38815;55.932;-3.232;2022-10-01T10:38:50;99012.91;;;17.79;63.96
52953;BME280;38815;55.932;-3.232;2022-10-01T10:41:17;99017.03;;;17.78;63.77
52953;BME280;38815;55.932;-3.232;2022-10-01T10:43:46;99024.56;;;17.75;63.93
52953;BME280;38815;55.932;-3.232;2022-10-01T10:46:28;99026.63;;;17.75;64.38
52953;BME280;38815;55.932;-3.232;2022-10-01T10:48:57;99030.97;;;17.76;66.24
52953;BME280;38815;55.932;-3.232;2022-10-01T10:51:24;99033.59;;;17.74;65.84
52953;BME280;38815;55.932;-3.232;2022-10-01T10:53:52;99044.31;;;17.75;66.97
52953;BME280;38815;55.932;-3.232;2022-10-01T10:56:19;99039.41;;;17.76;67.88
52953;BME280;38815;55.932;-3.232;2022-10-01T10:58:47;99043.72;;;17.77;67.89
52953;BME280;38815;55.932;-3.232;2022-10-01T11:01:34;99043.53;;;17.75;66.46
52953;BME280;38815;55.932;-3.232;2022-10-01T11:03:58;99055.56;;;17.75;66.00
52953;BME280;38815;55.932;-3.232;2022-10-01T11:06:25;99060.44;;;17.75;65.69
52953;BME280;38815;55.932;-3.232;2022-10-01T11:09:01;99064.41;;;17.72;65.92
52953;BME280;38815;55.932;-3.232;2022-10-01T11:14:02;99069.13;;;17.69;64.76
52953;BME280;38815;55.932;-3.232;2022-10-01T11:26:46;99080.78;;;17.66;64.42
52953;BME280;38815;55.932;-3.232;2022-10-01T11:29:22;99073.84;;;17.67;64.29
52953;BME280;38815;55.932;-3.232;2022-10-01T11:37:08;99080.22;;;17.67;64.88
52953;BME280;38815;55.932;-3.232;2022-10-01T11:39:37;99085.44;;;17.71;64.57
52953;BME280;38815;55.932;-3.232;2022-10-01T11:44:38;99083.94;;;17.77;64.36
52953;BME280;38815;55.932;-3.232;2022-10-01T11:47:10;99068.13;;;17.82;63.96
52953;BME280;38815;55.932;-3.232;2022-10-01T11:54:31;99071.72;;;17.82;64.37
52953;BME280;38815;55.932;-3.232;2022-10-01T11:56:58;99070.94;;;17.82;64.63
52953;BME280;38815;55.932;-3.232;2022-10-01T11:59:58;99073.59;;;17.80;64.10
52953;BME280;38815;55.932;-3.232;2022-10-01T12:02:29;99070.59;;;17.78;64.37
52953;BME280;38815;55.932;-3.232;2022-10-01T12:12:59;99054.03;;;17.82;64.61
52953;BME280;38815;55.932;-3.232;2022-10-01T12:17:54;99074.66;;;17.92;64.80
52953;BME280;38815;55.932;-3.232;2022-10-01T12:20:26;99074.09;;;17.93;64.12
52953;BME280;38815;55.932;-3.232;2022-10-01T12:22:54;99080.69;;;17.96;64.69
52953;BME280;38815;55.932;-3.232;2022-10-01T12:25:20;99083.69;;;17.98;64.98
52953;BME280;38815;55.932;-3.232;2022-10-01T12:28:02;99088.75;;;17.99;65.33
52953;BME280;38815;55.932;-3.232;2022-10-01T12:30:32;99081.59;;;17.98;64.84
52953;BME280;38815;55.932;-3.232;2022-10-01T12:35:29;99078.03;;;17.98;64.93
52953;BME280;38815;55.932;-3.232;2022-10-01T12:46:00;99114.13;;;17.92;64.29
52953;BME280;38815;55.932;-3.232;2022-10-01T12:53:31;99133.13;;;17.91;64.73
52953;BME280;38815;55.932;-3.232;2022-10-01T13:01:02;99166.75;;;17.97;65.14
52953;BME280;38815;55.932;-3.232;2022-10-01T13:09:18;99158.66;;;18.08;66.27
52953;BME280;38815;55.932;-3.232;2022-10-01T13:14:20;99167.44;;;18.20;67.70
52953;BME280;38815;55.932;-3.232;2022-10-01T13:19:33;99155.31;;;18.34;66.88
52953;BME280;38815;55.932;-3.232;2022-10-01T13:24:34;99154.19;;;18.37;66.39
52953;BME280;38815;55.932;-3.232;2022-10-01T13:34:57;99195.19;;;18.46;65.88
52953;BME280;38815;55.932;-3.232;2022-10-01T13:37:30;99185.97;;;18.45;65.45
52953;BME280;38815;55.932;-3.232;2022-10-01T13:39:57;99175.59;;;18.48;65.93
52953;BME280;38815;55.932;-3.232;2022-10-01T13:42:26;99188.78;;;18.45;65.27
52953;BME280;38815;55.932;-3.232;2022-10-01T13:45:00;99168.28;;;18.45;65.57
52953;BME280;38815;55.932;-3.232;2022-10-01T13:47:28;99187.13;;;18.42;65.35
52953;BME280;38815;55.932;-3.232;2022-10-01T13:49:55;99175.84;;;18.42;65.99
52953;BME280;38815;55.932;-3.232;2022-10-01T13:52:22;99182.41;;;18.45;66.25
52953;BME280;38815;55.932;-3.232;2022-10-01T13:54:49;99186.56;;;18.44;66.12
52953;BME280;38815;55.932;-3.232;2022-10-01T13:59:46;99187.66;;;18.41;66.75
52953;BME280;38815;55.932;-3.232;2022-10-01T14:02:29;99188.63;;;18.43;68.68
52953;BME280;38815;55.932;-3.232;2022-10-01T14:04:55;99186.38;;;18.42;68.39
52953;BME280;38815;55.932;-3.232;2022-10-01T14:07:29;99196.50;;;18.45;69.09
52953;BME280;38815;55.932;-3.232;2022-10-01T14:09:58;99192.38;;;18.46;69.37
52953;BME280;38815;55.932;-3.232;2022-10-01T14:15:13;99205.53;;;18.43;68.63
52953;BME280;38815;55.932;-3.232;2022-10-01T14:17:59;99212.13;;;18.38;67.47
52953;BME280;38815;55.932;-3.232;2022-10-01T14:20:27;99213.09;;;18.33;66.59
52953;BME280;38815;55.932;-3.232;2022-10-01T14:23:10;99230.41;;;18.30;67.84
52953;BME280;38815;55.932;-3.232;2022-10-01T14:25:48;99234.56;;;18.29;68.11
52953;BME280;38815;55.932;-3.232;2022-10-01T14:33:43;99267.28;;;18.24;67.39
52953;BME280;38815;55.932;-3.232;2022-10-01T14:36:18;99267.28;;;18.24;66.87
52953;BME280;38815;55.932;-3.232;2022-10-01T14:38:44;99268.59;;;18.23;67.43
52953;BME280;38815;55.932;-3.232;2022-10-01T14:41:16;99265.22;;;18.25;68.14
52953;BME280;38815;55.932;-3.232;2022-10-01T14:43:42;99256.94;;;18.27;68.19
52953;BME280;38815;55.932;-3.232;2022-10-01T14:46:12;99250.72;;;18.28;68.14
52953;BME280;38815;55.932;-3.232;2022-10-01T14:48:37;99250.72;;;18.28;67.63
52953;BME280;38815;55.932;-3.232;2022-10-01T14:51:05;99256.19;;;18.26;66.61
52953;BME280;38815;55.932;-3.232;2022-10-01T14:53:32;99253.16;;;18.24;65.87
52953;BME280;38815;55.932;-3.232;2022-10-01T14:55:59;99251.69;;;18.23;65.54
52953;BME280;38815;55.932;-3.232;2022-10-01T14:58:27;99255.63;;;18.20;65.24
52953;BME280;38815;55.932;-3.232;2022-10-01T15:00:54;99261.81;;;18.19;65.12
52953;BME280;38815;55.932;-3.232;2022-10-01T15:03:21;99266.75;;;18.18;65.16
52953;BME280;38815;55.932;-3.232;2022-10-01T15:05:47;99274.44;;;18.18;65.12
52953;BME280;38815;55.932;-3.232;2022-10-01T15:08:15;99282.91;;;18.18;65.11
52953;BME280;38815;55.932;-3.232;2022-10-01T15:10:57;99291.19;;;18.16;64.76
52953;BME280;38815;55.932;-3.232;2022-10-01T15:13:25;99291.19;;;18.16;64.58
52953;BME280;38815;55.932;-3.232;2022-10-01T15:15:51;99307.91;;;18.14;64.69
52953;BME280;38815;55.932;-3.232;2022-10-01T15:18:17;99302.28;;;18.14;64.03